Time;durP1;ratioP1;P1;durP2;ratioP2;P2;SDS_P1;SDS_P2;PMS_P1;PMS_P2;Temp;Humidity;BMP_temperature;BMP_pressure;BME280_temperature;BME280_humidity;BME280_pressure;Samples;Min_cycle;Max_cycle;Signal;HPM_P1;HPM_P2
2024/02/19 00:01:31;;;;;;;25.30;4.00;;;8.70;99.90;;;;;;5011817;28;20473;-72
2024/02/19 00:03:58;;;;;;;26.65;3.97;;;8.70;99.90;;;;;;4997244;28;20678;-75
2024/02/19 00:06:24;;;;;;;20.05;3.45;;;8.70;99.90;;;;;;5014383;28;20488;-75
2024/02/19 00:08:51;;;;;;;27.13;4.35;;;8.70;99.90;;;;;;5010832;28;20387;-75
2024/02/19 00:11:17;;;;;;;24.33;2.63;;;8.70;99.90;;;;;;4980672;28;20040;-74
2024/02/19 00:13:44;;;;;;;31.77;3.70;;;8.70;99.90;;;;;;4981167;28;20052;-74
2024/02/19 00:16:10;;;;;;;27.00;3.92;;;8.70;99.90;;;;;;4998485;28;20044;-75
2024/02/19 00:18:37;;;;;;;31.05;4.10;;;8.70;99.90;;;;;;5010670;28;20060;-73
2024/02/19 00:21:03;;;;;;;27.25;4.22;;;8.70;99.90;;;;;;5010845;28;20041;-74
2024/02/19 00:23:32;;;;;;;17.13;3.75;;;8.70;99.90;;;;;;4994049;28;20393;-72
2024/02/19 00:26:00;;;;;;;23.48;3.80;;;8.70;99.90;;;;;;4997029;28;20034;-74
2024/02/19 00:28:27;;;;;;;19.45;3.17;;;8.70;99.90;;;;;;5011006;28;20048;-74
2024/02/19 00:30:54;;;;;;;25.65;4.05;;;8.70;99.90;;;;;;5012085;28;20998;-73
2024/02/19 00:33:21;;;;;;;25.67;3.58;;;8.70;99.90;;;;;;5010727;28;20029;-75
2024/02/19 00:35:48;;;;;;;34.97;4.78;;;8.70;99.90;;;;;;5012165;28;20480;-72
2024/02/19 00:38:14;;;;;;;32.83;4.78;;;8.70;99.90;;;;;;5014670;28;20051;-75
2024/02/19 00:40:41;;;;;;;25.00;3.90;;;8.70;99.90;;;;;;4981662;28;20072;-75
2024/02/19 00:43:07;;;;;;;33.53;4.85;;;8.60;99.90;;;;;;4992962;28;20473;-74
2024/02/19 00:45:33;;;;;;;26.77;4.05;;;8.60;99.90;;;;;;4977006;28;20528;-75
2024/02/19 00:48:00;;;;;;;33.95;5.10;;;8.60;99.90;;;;;;4998069;28;20033;-72
2024/02/19 00:50:27;;;;;;;35.63;4.53;;;8.60;99.90;;;;;;5010674;28;20065;-73
2024/02/19 00:52:54;;;;;;;30.77;4.53;;;8.60;99.90;;;;;;5008598;28;20033;-76
2024/02/19 00:55:23;;;;;;;25.38;4.10;;;8.60;99.90;;;;;;5010435;28;20034;-75
2024/02/19 00:57:49;;;;;;;28.48;3.90;;;8.60;99.90;;;;;;5013891;28;20044;-75
2024/02/19 01:00:16;;;;;;;27.25;3.45;;;8.60;99.90;;;;;;4993379;28;20052;-73
2024/02/19 01:02:42;;;;;;;35.15;3.63;;;8.60;99.90;;;;;;5013371;28;20033;-74
2024/02/19 01:05:09;;;;;;;26.42;3.63;;;8.60;99.90;;;;;;5013447;28;20037;-74
2024/02/19 01:07:35;;;;;;;37.85;4.43;;;8.60;99.90;;;;;;5011956;28;20029;-75
2024/02/19 01:10:03;;;;;;;31.17;4.05;;;8.60;99.90;;;;;;5013679;28;20036;-75
2024/02/19 01:12:29;;;;;;;28.17;3.25;;;8.60;99.90;;;;;;4993975;28;20033;-74
2024/02/19 01:14:56;;;;;;;39.47;4.22;;;8.60;99.90;;;;;;5029530;28;20056;-74
2024/02/19 01:17:22;;;;;;;27.17;3.13;;;8.60;99.90;;;;;;5010069;28;20029;-74
2024/02/19 01:19:48;;;;;;;33.10;4.25;;;8.60;99.90;;;;;;4995247;28;20029;-75
2024/02/19 01:22:15;;;;;;;34.30;3.38;;;8.60;99.90;;;;;;4996467;28;20563;-73
2024/02/19 01:24:41;;;;;;;26.80;3.25;;;8.60;99.90;;;;;;5012684;28;20041;-75
2024/02/19 01:27:07;;;;;;;21.52;3.35;;;8.60;99.90;;;;;;5013119;28;20045;-72
2024/02/19 01:29:35;;;;;;;24.67;2.67;;;8.60;99.90;;;;;;5012560;28;20056;-74
2024/02/19 01:32:01;;;;;;;20.85;2.38;;;8.60;99.90;;;;;;5015706;28;20033;-75
2024/02/19 01:34:29;;;;;;;23.83;2.83;;;8.50;99.90;;;;;;5010686;28;20277;-75
2024/02/19 01:36:57;;;;;;;31.20;3.88;;;8.50;99.90;;;;;;4995077;28;20144;-74
2024/02/19 01:39:24;;;;;;;23.42;2.83;;;8.60;99.90;;;;;;4995633;28;20425;-76
2024/02/19 01:41:50;;;;;;;18.35;2.60;;;8.50;99.90;;;;;;5012269;28;20603;-72
2024/02/19 01:44:17;;;;;;;25.42;3.35;;;8.60;99.90;;;;;;4997616;28;20456;-73
2024/02/19 01:46:45;;;;;;;19.10;2.78;;;8.60;99.90;;;;;;4997473;28;20040;-75
2024/02/19 01:49:13;;;;;;;31.08;2.90;;;8.60;99.90;;;;;;5016888;28;20424;-76
2024/02/19 01:51:40;;;;;;;25.15;2.72;;;8.60;99.90;;;;;;4998802;28;20037;-75
2024/02/19 01:54:09;;;;;;;23.55;3.40;;;8.50;99.90;;;;;;5012566;28;20041;-75
2024/02/19 01:56:37;;;;;;;24.23;2.53;;;8.60;99.90;;;;;;5001041;28;20033;-74
2024/02/19 01:59:06;;;;;;;22.17;2.00;;;8.60;99.90;;;;;;4999864;28;20065;-75
2024/02/19 02:01:37;;;;;;;18.27;1.85;;;8.60;99.90;;;;;;4997977;28;20045;-74
2024/02/19 02:04:08;;;;;;;22.02;2.17;;;8.60;99.90;;;;;;5009976;28;20041;-74
2024/02/19 02:06:35;;;;;;;12.40;1.20;;;8.60;99.90;;;;;;5011412;28;20029;-75
2024/02/19 02:09:01;;;;;;;10.93;1.17;;;8.60;99.90;;;;;;5012956;28;20048;-75
2024/02/19 02:11:28;;;;;;;22.77;2.95;;;8.60;99.90;;;;;;5013934;28;20033;-76
2024/02/19 02:13:54;;;;;;;26.88;4.32;;;8.60;99.90;;;;;;5016209;28;20036;-73
2024/02/19 02:16:30;;;;;;;28.23;3.13;;;8.60;99.90;;;;;;5017533;28;20060;-75
2024/02/19 02:18:57;;;;;;;31.30;5.00;;;8.60;99.90;;;;;;4994877;28;20052;-73
2024/02/19 02:21:23;;;;;;;24.25;3.30;;;8.50;99.90;;;;;;4999495;28;20030;-76
2024/02/19 02:23:51;;;;;;;17.60;2.70;;;8.50;99.90;;;;;;5015884;28;20041;-74
2024/02/19 02:26:17;;;;;;;16.75;2.30;;;8.40;99.90;;;;;;5015651;28;20030;-75
2024/02/19 02:28:43;;;;;;;17.42;2.63;;;8.40;99.90;;;;;;5016996;28;20040;-74
2024/02/19 02:31:10;;;;;;;26.10;3.17;;;8.30;99.90;;;;;;5013831;28;20599;-74
2024/02/19 02:33:36;;;;;;;21.55;2.63;;;8.30;99.90;;;;;;4979107;28;20048;-74
2024/02/19 02:36:03;;;;;;;16.98;2.17;;;8.20;99.90;;;;;;4997939;28;20037;-75
2024/02/19 02:38:29;;;;;;;14.50;2.20;;;8.20;99.90;;;;;;5011817;28;20025;-75
2024/02/19 02:40:56;;;;;;;15.65;2.60;;;8.20;99.90;;;;;;5011016;28;20053;-73
2024/02/19 02:43:22;;;;;;;20.15;2.85;;;8.30;99.90;;;;;;5008892;28;20495;-76
2024/02/19 02:45:48;;;;;;;21.15;2.22;;;8.30;99.90;;;;;;5015716;28;20068;-76
2024/02/19 02:48:15;;;;;;;17.63;2.33;;;8.30;99.90;;;;;;4999443;28;20037;-76
2024/02/19 02:50:41;;;;;;;21.88;2.70;;;8.30;99.90;;;;;;5014270;28;20037;-75
2024/02/19 02:53:07;;;;;;;33.70;4.70;;;8.30;99.90;;;;;;5011297;28;20041;-75
2024/02/19 02:55:34;;;;;;;19.38;2.55;;;8.30;99.90;;;;;;5011884;28;20073;-74
2024/02/19 02:58:00;;;;;;;27.27;3.95;;;8.20;99.90;;;;;;5012456;28;20033;-76
2024/02/19 03:00:26;;;;;;;32.05;3.97;;;8.20;99.90;;;;;;5014551;28;20037;-75
2024/02/19 03:02:53;;;;;;;26.60;4.05;;;8.20;99.90;;;;;;5015088;28;20539;-76
2024/02/19 03:05:19;;;;;;;43.00;5.53;;;8.30;99.90;;;;;;5014989;28;20032;-76
2024/02/19 03:07:46;;;;;;;18.70;2.92;;;8.30;99.90;;;;;;5013546;28;20045;-72
2024/02/19 03:10:12;;;;;;;18.70;2.40;;;8.20;99.90;;;;;;5012882;28;20033;-75
2024/02/19 03:12:39;;;;;;;27.30;4.10;;;8.20;99.90;;;;;;4997828;28;20037;-72
2024/02/19 03:15:06;;;;;;;31.75;4.07;;;8.20;99.90;;;;;;4999315;28;20034;-74
2024/02/19 03:17:32;;;;;;;25.00;4.20;;;8.30;99.90;;;;;;4996103;28;20045;-73
2024/02/19 03:19:59;;;;;;;36.35;5.47;;;8.30;99.90;;;;;;5028134;28;20049;-76
2024/02/19 03:22:25;;;;;;;22.08;4.53;;;8.30;99.90;;;;;;5012783;28;20045;-77
2024/02/19 03:24:52;;;;;;;35.72;4.80;;;8.30;99.90;;;;;;4998210;28;20037;-77
2024/02/19 03:27:18;;;;;;;24.70;3.78;;;8.30;99.90;;;;;;5005647;28;20496;-76
2024/02/19 03:29:44;;;;;;;25.73;4.68;;;8.40;99.90;;;;;;4995930;28;20033;-73
2024/02/19 03:32:10;;;;;;;18.23;2.65;;;8.40;99.90;;;;;;4997754;28;20030;-75
2024/02/19 03:34:37;;;;;;;29.33;5.38;;;8.40;99.90;;;;;;4996951;28;22148;-77
2024/02/19 03:37:03;;;;;;;23.98;4.60;;;8.40;99.90;;;;;;4998238;28;20046;-76
2024/02/19 03:39:29;;;;;;;32.53;4.43;;;8.40;99.90;;;;;;4996647;28;20044;-75
2024/02/19 03:41:56;;;;;;;27.05;4.03;;;8.40;99.90;;;;;;4991067;28;20064;-77
2024/02/19 03:44:22;;;;;;;26.67;3.70;;;8.50;99.90;;;;;;4989975;28;20032;-77
2024/02/19 03:46:49;;;;;;;17.15;3.42;;;8.50;99.90;;;;;;4989293;28;20041;-76
2024/02/19 03:49:15;;;;;;;28.63;4.57;;;8.50;99.90;;;;;;4972660;28;20048;-72
2024/02/19 03:51:42;;;;;;;23.90;4.13;;;8.50;99.90;;;;;;4971450;28;20042;-76
2024/02/19 03:54:08;;;;;;;29.98;5.28;;;8.50;99.90;;;;;;4972432;28;20607;-77
2024/02/19 03:56:34;;;;;;;28.95;5.60;;;8.50;99.90;;;;;;4987798;28;20629;-75
2024/02/19 03:59:01;;;;;;;26.23;5.25;;;8.50;99.90;;;;;;4995119;28;20045;-73
2024/02/19 04:01:27;;;;;;;36.60;5.60;;;8.50;99.90;;;;;;4995670;28;20026;-76
2024/02/19 04:03:54;;;;;;;29.83;5.82;;;8.50;99.90;;;;;;4995216;28;20026;-75
2024/02/19 04:06:20;;;;;;;28.45;5.95;;;8.50;99.90;;;;;;4990796;28;20433;-73
2024/02/19 04:08:47;;;;;;;35.33;5.90;;;8.50;99.90;;;;;;4991149;28;20037;-76
2024/02/19 04:11:16;;;;;;;37.40;7.07;;;8.60;99.90;;;;;;4990444;28;20038;-77
2024/02/19 04:13:43;;;;;;;21.45;5.30;;;8.60;99.90;;;;;;4987229;28;20033;-72
2024/02/19 04:16:12;;;;;;;22.23;6.43;;;8.60;99.90;;;;;;4989664;28;20044;-73
2024/02/19 04:18:38;;;;;;;26.90;6.53;;;8.60;99.90;;;;;;4988892;28;20037;-76
2024/02/19 04:21:05;;;;;;;28.33;6.93;;;8.60;99.90;;;;;;4991480;28;21525;-73
2024/02/19 04:23:31;;;;;;;33.25;7.97;;;8.60;99.90;;;;;;5012314;28;20064;-76
2024/02/19 04:25:58;;;;;;;26.70;7.35;;;8.60;99.90;;;;;;4997118;28;20041;-74
2024/02/19 04:28:24;;;;;;;27.17;6.35;;;8.60;99.90;;;;;;4980177;28;20063;-75
2024/02/19 04:30:51;;;;;;;37.63;7.10;;;8.60;99.90;;;;;;4986592;28;20037;-73
2024/02/19 04:33:17;;;;;;;33.40;6.45;;;8.60;99.90;;;;;;4969975;28;20037;-77
2024/02/19 04:35:44;;;;;;;35.08;7.38;;;8.60;99.90;;;;;;5005552;28;20036;-77
2024/02/19 04:38:10;;;;;;;31.63;6.35;;;8.60;99.90;;;;;;4987421;28;20446;-73
2024/02/19 04:40:36;;;;;;;34.78;7.22;;;8.60;99.90;;;;;;4989876;28;20032;-74
2024/02/19 04:43:03;;;;;;;32.58;6.80;;;8.60;99.90;;;;;;4972444;28;20041;-74
2024/02/19 04:45:29;;;;;;;24.98;6.60;;;8.60;99.90;;;;;;4975291;28;20153;-77
2024/02/19 04:47:56;;;;;;;27.98;6.93;;;8.60;99.90;;;;;;4995555;28;20045;-75
2024/02/19 04:50:22;;;;;;;25.33;5.20;;;8.60;99.90;;;;;;4995370;28;20045;-76
2024/02/19 04:52:48;;;;;;;34.80;6.47;;;8.60;99.90;;;;;;4998322;28;20052;-78
2024/02/19 04:55:15;;;;;;;22.55;5.50;;;8.60;99.90;;;;;;4989877;28;20029;-76
2024/02/19 04:57:41;;;;;;;29.48;6.18;;;8.60;99.90;;;;;;4990085;28;20052;-77
2024/02/19 05:00:08;;;;;;;26.13;5.43;;;8.60;99.90;;;;;;4971589;28;20052;-73
2024/02/19 05:02:34;;;;;;;32.42;5.95;;;8.60;99.90;;;;;;4990601;28;20029;-72
2024/02/19 05:05:00;;;;;;;21.77;4.82;;;8.60;99.90;;;;;;4970565;28;20048;-73
2024/02/19 05:07:27;;;;;;;29.40;4.50;;;8.60;99.90;;;;;;4955602;28;20868;-73
2024/02/19 05:09:54;;;;;;;28.10;5.53;;;8.60;99.90;;;;;;5014138;28;20480;-74
2024/02/19 05:12:20;;;;;;;22.40;4.43;;;8.60;99.90;;;;;;4999453;28;20392;-76
2024/02/19 05:14:47;;;;;;;19.02;3.83;;;8.60;99.90;;;;;;4979170;28;20033;-75
2024/02/19 05:17:13;;;;;;;17.73;3.72;;;8.60;99.90;;;;;;5002761;28;20041;-76
2024/02/19 05:19:39;;;;;;;19.75;4.75;;;8.70;99.90;;;;;;4988652;28;20037;-75
2024/02/19 05:22:06;;;;;;;18.45;4.50;;;8.70;99.90;;;;;;4991467;28;20740;-73
2024/02/19 05:24:33;;;;;;;17.50;3.92;;;8.60;99.90;;;;;;4992612;28;20256;-73
2024/02/19 05:26:59;;;;;;;14.73;3.10;;;8.70;99.90;;;;;;4992061;28;20033;-73
2024/02/19 05:29:25;;;;;;;18.08;3.60;;;8.70;99.90;;;;;;4992327;28;20499;-73
2024/02/19 05:31:52;;;;;;;19.40;3.42;;;8.70;99.90;;;;;;4999902;28;22094;-73
2024/02/19 05:34:19;;;;;;;23.17;3.75;;;8.70;99.90;;;;;;4986449;28;20060;-76
2024/02/19 05:36:45;;;;;;;23.40;3.83;;;8.70;99.90;;;;;;5001437;28;20033;-74
2024/02/19 05:39:11;;;;;;;12.63;3.03;;;8.60;99.90;;;;;;4993022;28;20034;-77
2024/02/19 05:41:38;;;;;;;16.05;2.97;;;8.70;99.90;;;;;;4975656;28;20390;-73
2024/02/19 05:44:06;;;;;;;18.55;3.55;;;8.70;99.90;;;;;;4975958;28;20392;-75
2024/02/19 05:46:33;;;;;;;19.38;4.35;;;8.70;99.90;;;;;;4974900;28;20041;-76
2024/02/19 05:48:59;;;;;;;18.55;3.28;;;8.70;99.90;;;;;;4991878;28;20886;-73
2024/02/19 05:51:27;;;;;;;19.45;4.00;;;8.70;99.90;;;;;;4994591;28;20084;-74
2024/02/19 05:53:54;;;;;;;28.08;4.88;;;8.80;99.90;;;;;;5028644;28;20037;-73
2024/02/19 05:56:21;;;;;;;30.65;5.35;;;8.80;99.90;;;;;;4969371;28;20342;-77
2024/02/19 05:58:47;;;;;;;26.83;5.55;;;8.70;99.90;;;;;;4981688;28;20500;-75
2024/02/19 06:01:14;;;;;;;22.75;4.25;;;8.70;99.90;;;;;;5026152;28;20037;-75
2024/02/19 06:03:40;;;;;;;20.08;5.03;;;8.70;99.90;;;;;;4990056;28;20063;-74
2024/02/19 06:06:06;;;;;;;32.00;5.13;;;8.70;99.90;;;;;;4977853;28;20037;-76
2024/02/19 06:08:33;;;;;;;16.75;3.83;;;8.70;99.90;;;;;;4993977;28;20033;-73
2024/02/19 06:11:03;;;;;;;34.00;6.30;;;8.70;99.90;;;;;;4975124;28;20150;-77
2024/02/19 06:13:30;;;;;;;17.58;3.63;;;8.70;99.90;;;;;;4974155;28;20041;-74
2024/02/19 06:15:56;;;;;;;24.85;4.72;;;8.70;99.90;;;;;;4999525;28;20033;-76
2024/02/19 06:18:22;;;;;;;29.58;5.38;;;8.70;99.90;;;;;;4984536;28;20226;-76
2024/02/19 06:20:49;;;;;;;23.10;5.85;;;8.70;99.90;;;;;;4997923;28;20038;-76
2024/02/19 06:23:15;;;;;;;24.75;4.50;;;8.70;99.90;;;;;;4972562;28;20041;-74
2024/02/19 06:25:44;;;;;;;19.63;4.07;;;8.70;99.90;;;;;;4993674;28;20044;-73
2024/02/19 06:28:11;;;;;;;18.65;4.97;;;8.70;99.90;;;;;;5005570;28;20038;-74
2024/02/19 06:30:38;;;;;;;23.02;5.15;;;8.70;99.90;;;;;;4974714;28;20518;-73
2024/02/19 06:33:04;;;;;;;25.52;5.80;;;8.70;99.90;;;;;;4973742;28;20477;-76
2024/02/19 06:35:31;;;;;;;21.10;5.43;;;8.70;99.90;;;;;;4957191;28;20556;-76
2024/02/19 06:37:57;;;;;;;17.95;5.25;;;8.70;99.90;;;;;;4996054;28;20038;-75
2024/02/19 06:40:23;;;;;;;26.02;7.55;;;8.70;99.90;;;;;;4999335;28;20037;-74
2024/02/19 06:42:50;;;;;;;35.95;9.30;;;8.70;99.90;;;;;;4967483;28;20041;-74
2024/02/19 06:45:17;;;;;;;30.58;9.35;;;8.70;99.90;;;;;;4975641;28;20296;-72
2024/02/19 06:47:43;;;;;;;33.28;10.00;;;8.70;99.90;;;;;;4992543;28;20041;-74
2024/02/19 06:50:10;;;;;;;38.53;11.25;;;8.70;99.90;;;;;;4989866;28;20044;-74
2024/02/19 06:52:36;;;;;;;36.03;10.93;;;8.70;99.90;;;;;;4991919;28;20437;-74
2024/02/19 06:55:03;;;;;;;50.05;12.77;;;8.70;99.90;;;;;;4989580;28;20033;-72
2024/02/19 06:57:29;;;;;;;30.92;10.93;;;8.70;99.90;;;;;;4972643;28;20038;-74
2024/02/19 06:59:55;;;;;;;34.88;11.65;;;8.70;99.90;;;;;;4972467;28;20044;-74
2024/02/19 07:02:22;;;;;;;30.75;10.55;;;8.70;99.90;;;;;;4981162;28;20400;-73
2024/02/19 07:04:49;;;;;;;34.25;10.90;;;8.70;99.90;;;;;;5029443;28;20496;-74
2024/02/19 07:07:15;;;;;;;33.97;10.93;;;8.70;99.90;;;;;;4978544;28;21182;-74
2024/02/19 07:09:41;;;;;;;30.05;10.70;;;8.80;99.90;;;;;;4986798;28;20045;-72
2024/02/19 07:12:10;;;;;;;26.90;10.70;;;8.70;99.90;;;;;;4987769;28;20050;-74
2024/02/19 07:14:36;;;;;;;32.25;10.88;;;8.80;99.90;;;;;;4969994;28;20038;-72
2024/02/19 07:17:02;;;;;;;34.03;11.90;;;8.80;99.90;;;;;;4972425;28;20036;-74
2024/02/19 07:19:29;;;;;;;29.48;10.30;;;8.80;99.90;;;;;;4969755;28;20049;-75
2024/02/19 07:21:55;;;;;;;28.40;10.27;;;8.80;99.90;;;;;;4990852;28;20045;-74
2024/02/19 07:24:22;;;;;;;33.03;10.52;;;8.80;99.90;;;;;;4980492;28;20061;-75
2024/02/19 07:26:48;;;;;;;29.17;9.07;;;8.80;99.90;;;;;;5000611;28;20029;-72
2024/02/19 07:29:15;;;;;;;30.67;10.57;;;8.90;99.90;;;;;;4995829;28;20053;-73
2024/02/19 07:31:42;;;;;;;30.85;9.73;;;8.90;99.90;;;;;;4972955;28;20056;-74
2024/02/19 07:34:08;;;;;;;31.55;10.40;;;8.90;99.90;;;;;;4970693;28;20048;-73
2024/02/19 07:36:34;;;;;;;26.30;10.13;;;9.00;99.90;;;;;;4986508;28;20037;-74
2024/02/19 07:39:01;;;;;;;23.58;9.35;;;9.00;99.90;;;;;;5001667;28;20041;-72
2024/02/19 07:41:27;;;;;;;26.77;9.20;;;9.00;99.90;;;;;;4988476;28;21707;-73
2024/02/19 07:43:53;;;;;;;28.10;8.82;;;9.00;99.90;;;;;;4987543;28;20033;-73
2024/02/19 07:46:21;;;;;;;28.98;8.63;;;9.10;99.90;;;;;;4979384;28;21693;-73
2024/02/19 07:48:48;;;;;;;28.58;9.10;;;9.10;99.90;;;;;;4993506;28;20049;-73
2024/02/19 07:51:14;;;;;;;25.90;8.88;;;9.10;99.90;;;;;;4984673;28;20044;-73
2024/02/19 07:53:45;;;;;;;29.75;10.15;;;9.10;99.90;;;;;;4997561;28;20025;-75
2024/02/19 07:56:11;;;;;;;29.88;9.68;;;9.20;99.90;;;;;;4986892;28;20038;-73
2024/02/19 07:58:37;;;;;;;28.02;7.47;;;9.20;99.90;;;;;;4968915;28;20041;-72
2024/02/19 08:01:04;;;;;;;23.60;9.27;;;9.30;99.90;;;;;;4988068;28;20049;-73
2024/02/19 08:03:33;;;;;;;34.83;10.95;;;9.30;99.90;;;;;;4995394;28;20530;-74
2024/02/19 08:06:00;;;;;;;30.88;9.05;;;9.30;99.90;;;;;;4995414;28;20025;-72
2024/02/19 08:08:28;;;;;;;35.28;8.93;;;9.30;99.90;;;;;;5002023;28;20547;-72
2024/02/19 08:10:54;;;;;;;25.20;8.18;;;9.40;99.90;;;;;;4986493;28;20041;-74
2024/02/19 08:13:20;;;;;;;18.73;7.65;;;9.40;99.90;;;;;;4953569;28;20507;-75
2024/02/19 08:15:48;;;;;;;22.75;7.70;;;9.50;99.90;;;;;;4968164;28;20032;-74
2024/02/19 08:18:14;;;;;;;28.88;9.15;;;9.50;99.90;;;;;;4970313;28;20064;-73
2024/02/19 08:20:41;;;;;;;24.85;9.10;;;9.60;99.90;;;;;;4968928;28;20041;-73
2024/02/19 08:23:07;;;;;;;30.83;8.07;;;9.60;99.90;;;;;;4996903;28;20033;-74
2024/02/19 08:25:34;;;;;;;26.33;8.40;;;9.70;99.90;;;;;;4995719;28;20048;-74
2024/02/19 08:28:01;;;;;;;26.27;9.02;;;9.70;99.90;;;;;;4988679;28;21618;-73
2024/02/19 08:30:27;;;;;;;29.00;9.88;;;9.80;99.90;;;;;;4984342;28;21189;-73
2024/02/19 08:32:53;;;;;;;26.73;8.50;;;9.90;99.90;;;;;;4984911;28;20041;-74
2024/02/19 08:35:20;;;;;;;28.42;9.52;;;9.90;99.90;;;;;;5013621;28;20033;-74
2024/02/19 08:37:46;;;;;;;25.50;7.80;;;10.00;99.90;;;;;;4985049;28;20036;-74
2024/02/19 08:40:12;;;;;;;26.25;7.53;;;10.00;99.90;;;;;;4987024;28;20040;-73
2024/02/19 08:42:39;;;;;;;27.48;9.07;;;10.10;99.90;;;;;;4994424;28;20448;-74
2024/02/19 08:45:06;;;;;;;31.42;9.27;;;10.10;99.90;;;;;;4998847;28;20540;-73
2024/02/19 08:47:32;;;;;;;32.13;10.23;;;10.20;99.90;;;;;;4991830;28;20413;-73
2024/02/19 08:49:58;;;;;;;25.58;7.53;;;10.30;99.90;;;;;;4983916;28;20056;-72
2024/02/19 08:52:25;;;;;;;25.23;9.45;;;10.30;99.90;;;;;;4984245;28;20037;-73
2024/02/19 08:54:51;;;;;;;16.98;7.70;;;10.40;99.90;;;;;;4950866;28;21589;-74
2024/02/19 08:57:18;;;;;;;16.92;7.82;;;10.40;99.90;;;;;;4985602;28;20045;-73
2024/02/19 08:59:45;;;;;;;11.98;7.35;;;10.50;99.90;;;;;;4972310;28;20053;-73
2024/02/19 09:02:15;;;;;;;17.77;7.03;;;10.50;99.90;;;;;;4988047;28;20052;-75
2024/02/19 09:04:42;;;;;;;20.48;7.80;;;10.60;99.90;;;;;;4997940;28;20782;-73
2024/02/19 09:07:10;;;;;;;25.92;9.63;;;10.60;99.90;;;;;;4983397;28;20025;-74
2024/02/19 09:09:36;;;;;;;26.52;10.00;;;10.70;99.90;;;;;;5012441;28;20037;-72
2024/02/19 09:12:04;;;;;;;22.98;9.15;;;10.80;99.90;;;;;;4985290;28;20038;-72
2024/02/19 09:14:30;;;;;;;27.58;10.60;;;10.80;99.90;;;;;;4967112;28;20053;-73
2024/02/19 09:16:56;;;;;;;23.67;10.23;;;10.90;99.90;;;;;;4983370;28;20037;-74
2024/02/19 09:19:23;;;;;;;24.58;10.95;;;10.80;99.90;;;;;;4985218;28;20697;-73
2024/02/19 09:21:50;;;;;;;26.08;10.43;;;10.80;99.90;;;;;;4998808;28;20041;-73
2024/02/19 09:24:16;;;;;;;32.55;11.65;;;10.80;99.90;;;;;;4984319;28;20040;-73
2024/02/19 09:26:42;;;;;;;21.02;9.63;;;10.80;99.90;;;;;;4999118;28;20406;-73
2024/02/19 09:29:09;;;;;;;22.25;9.57;;;10.80;99.90;;;;;;4995177;28;20036;-72
2024/02/19 09:31:36;;;;;;;35.65;11.52;;;10.80;99.90;;;;;;4977021;28;20732;-74
2024/02/19 09:34:03;;;;;;;33.95;11.38;;;10.70;99.90;;;;;;4966319;28;20037;-74
2024/02/19 09:36:30;;;;;;;27.48;10.15;;;10.70;99.90;;;;;;4987497;28;20046;-72
2024/02/19 09:38:56;;;;;;;22.52;9.20;;;10.70;99.90;;;;;;4968637;28;20030;-75
2024/02/19 09:41:23;;;;;;;26.13;9.52;;;10.70;99.90;;;;;;4988570;28;20044;-72
2024/02/19 09:43:51;;;;;;;19.95;8.90;;;10.70;99.90;;;;;;4986781;28;20036;-73
2024/02/19 09:46:21;;;;;;;21.13;8.63;;;10.70;99.90;;;;;;4996070;28;20473;-74
2024/02/19 09:48:49;;;;;;;25.73;9.30;;;10.80;99.90;;;;;;4995263;28;20025;-72
2024/02/19 09:51:18;;;;;;;23.20;8.90;;;10.90;99.90;;;;;;4958164;28;20492;-73
2024/02/19 09:53:51;;;;;;;25.73;9.35;;;10.90;99.90;;;;;;4988542;28;20061;-75
2024/02/19 09:56:19;;;;;;;23.60;11.15;;;11.00;99.90;;;;;;4988308;28;20709;-74
2024/02/19 09:58:46;;;;;;;26.50;10.90;;;11.00;99.90;;;;;;4969010;28;20041;-74
2024/02/19 10:01:12;;;;;;;23.23;10.98;;;11.10;99.90;;;;;;4953778;28;20041;-75
2024/02/19 10:03:39;;;;;;;26.88;10.93;;;11.10;99.90;;;;;;4985069;28;20045;-76
2024/02/19 10:06:06;;;;;;;20.80;10.18;;;11.20;99.90;;;;;;4993051;28;20132;-73
2024/02/19 10:08:32;;;;;;;20.52;9.10;;;11.20;99.90;;;;;;4984448;28;20662;-72
2024/02/19 10:11:06;;;;;;;22.27;10.07;;;11.30;99.90;;;;;;5000080;28;20026;-72
2024/02/19 10:13:34;;;;;;;21.25;9.80;;;11.40;99.90;;;;;;4984531;28;20044;-72
2024/02/19 10:16:00;;;;;;;21.02;10.05;;;11.50;99.90;;;;;;4985762;28;20049;-74
2024/02/19 10:18:27;;;;;;;22.92;10.05;;;11.50;99.90;;;;;;4970087;28;20495;-75
2024/02/19 10:20:53;;;;;;;22.75;10.23;;;11.50;99.90;;;;;;4987324;28;21455;-75
2024/02/19 10:23:20;;;;;;;15.02;8.52;;;11.50;99.90;;;;;;4985545;28;20048;-75
2024/02/19 10:25:47;;;;;;;18.85;9.07;;;11.50;99.90;;;;;;4953995;28;20033;-72
2024/02/19 10:28:14;;;;;;;23.33;10.27;;;11.60;99.90;;;;;;4992447;28;21734;-74
2024/02/19 10:30:40;;;;;;;20.40;8.32;;;11.60;99.90;;;;;;4965457;28;20041;-74
2024/02/19 10:33:06;;;;;;;23.45;9.90;;;11.60;99.90;;;;;;5000117;28;20132;-75
2024/02/19 10:35:33;;;;;;;22.90;9.90;;;11.60;99.90;;;;;;4987419;28;20052;-76
2024/02/19 10:38:00;;;;;;;21.40;10.10;;;11.50;99.90;;;;;;4986967;28;20036;-72
2024/02/19 10:40:27;;;;;;;26.63;11.60;;;11.50;99.90;;;;;;4988572;28;20726;-76
2024/02/19 10:42:55;;;;;;;22.45;14.40;;;11.50;99.90;;;;;;4985886;28;20041;-72
2024/02/19 10:45:23;;;;;;;31.17;15.65;;;11.50;99.90;;;;;;5001822;28;20041;-76
2024/02/19 10:47:51;;;;;;;27.20;15.75;;;11.50;99.90;;;;;;4970862;28;20606;-76
2024/02/19 10:50:18;;;;;;;26.50;15.00;;;11.50;99.90;;;;;;4999018;28;20029;-74
2024/02/19 10:52:46;;;;;;;26.33;15.35;;;11.50;99.90;;;;;;4995932;28;20840;-76
2024/02/19 10:55:16;;;;;;;23.55;13.68;;;11.50;99.90;;;;;;4973822;28;20052;-73
2024/02/19 10:57:54;;;;;;;26.95;15.30;;;11.40;99.90;;;;;;4967053;28;20041;-76
2024/02/19 11:00:26;;;;;;;28.02;15.18;;;11.50;99.90;;;;;;4968766;28;20049;-74
2024/02/19 11:03:06;;;;;;;27.05;14.23;;;11.50;99.90;;;;;;4985685;28;20052;-75
2024/02/19 11:05:44;;;;;;;20.98;12.43;;;11.40;99.90;;;;;;4966913;28;20656;-78
2024/02/19 11:08:24;;;;;;;21.08;12.05;;;11.40;99.90;;;;;;4985262;28;20044;-75
2024/02/19 11:10:55;;;;;;;21.73;12.55;;;11.40;99.90;;;;;;5011211;28;20029;-74
2024/02/19 11:13:25;;;;;;;28.33;12.52;;;11.30;99.90;;;;;;4980559;28;20037;-75
2024/02/19 11:15:51;;;;;;;22.98;11.73;;;11.30;99.90;;;;;;5005763;28;20407;-76
2024/02/19 11:18:20;;;;;;;21.10;11.13;;;11.30;99.90;;;;;;4969522;28;20037;-77
2024/02/19 11:20:47;;;;;;;23.85;11.93;;;11.30;99.90;;;;;;4986810;28;20067;-72
2024/02/19 11:23:17;;;;;;;20.23;11.02;;;11.20;99.90;;;;;;4987302;28;21130;-75
2024/02/19 11:25:47;;;;;;;25.20;12.95;;;11.20;99.90;;;;;;4989785;28;20044;-72
2024/02/19 11:28:14;;;;;;;24.02;12.18;;;11.20;99.90;;;;;;4957718;28;20030;-74
2024/02/19 11:30:41;;;;;;;24.60;12.55;;;11.20;99.90;;;;;;4994412;28;20048;-77
2024/02/19 11:33:09;;;;;;;23.48;11.43;;;11.20;99.90;;;;;;4966784;28;20468;-74
2024/02/19 11:35:36;;;;;;;18.95;9.85;;;11.20;99.90;;;;;;4992136;28;20034;-72
2024/02/19 11:38:03;;;;;;;19.27;10.38;;;11.20;99.90;;;;;;4990167;28;20410;-77
2024/02/19 11:40:33;;;;;;;18.52;10.07;;;11.30;99.90;;;;;;4989310;28;20479;-75
2024/02/19 11:43:01;;;;;;;19.45;10.50;;;11.30;99.90;;;;;;4972065;28;20491;-76
2024/02/19 11:45:30;;;;;;;20.60;11.18;;;11.30;99.90;;;;;;4971147;28;20033;-73
2024/02/19 11:47:57;;;;;;;30.88;12.63;;;11.30;99.90;;;;;;4968639;28;20124;-72
2024/02/19 11:50:31;;;;;;;17.60;10.05;;;11.30;99.90;;;;;;4972066;28;20053;-75
2024/02/19 11:52:58;;;;;;;17.92;10.85;;;11.30;99.90;;;;;;5011196;28;20045;-75
2024/02/19 11:55:29;;;;;;;19.45;10.38;;;11.30;99.90;;;;;;4994414;28;20040;-71
2024/02/19 11:57:59;;;;;;;19.20;10.32;;;11.30;99.90;;;;;;5004092;28;20639;-72
2024/02/19 12:00:29;;;;;;;20.27;10.65;;;11.40;99.90;;;;;;4983042;28;20511;-73
2024/02/19 12:02:59;;;;;;;19.42;10.82;;;11.40;99.90;;;;;;4983355;28;20398;-76
2024/02/19 12:05:26;;;;;;;18.90;9.50;;;11.40;99.90;;;;;;4969577;28;20060;-72
2024/02/19 12:07:53;;;;;;;26.67;10.98;;;11.40;99.90;;;;;;4965717;28;20034;-74
2024/02/19 12:10:19;;;;;;;20.65;11.38;;;11.40;99.90;;;;;;4951353;28;20837;-73
2024/02/19 12:12:46;;;;;;;20.00;11.07;;;11.40;99.90;;;;;;4983829;28;21296;-74
2024/02/19 12:15:15;;;;;;;21.05;10.65;;;11.40;99.90;;;;;;4977316;28;20203;-74
2024/02/19 12:17:43;;;;;;;23.67;11.32;;;11.40;99.90;;;;;;4979006;28;20449;-72
2024/02/19 12:20:11;;;;;;;21.48;10.95;;;11.40;99.90;;;;;;4979303;28;20045;-83
2024/02/19 12:22:41;;;;;;;23.30;9.45;;;11.40;99.90;;;;;;4953671;28;20392;-76
2024/02/19 12:25:08;;;;;;;19.60;9.40;;;11.40;99.90;;;;;;5016488;28;20029;-75
2024/02/19 12:27:34;;;;;;;22.20;9.32;;;11.40;99.90;;;;;;4973809;28;20033;-76
2024/02/19 12:30:02;;;;;;;26.13;10.82;;;11.30;99.90;;;;;;4973428;28;20400;-76
2024/02/19 12:32:29;;;;;;;20.85;8.55;;;11.30;99.90;;;;;;4988956;28;20017;-75
2024/02/19 12:34:55;;;;;;;19.65;9.43;;;11.30;99.90;;;;;;4987098;28;20969;-75
2024/02/19 12:37:22;;;;;;;17.27;8.20;;;11.30;99.90;;;;;;4996533;28;20034;-73
2024/02/19 12:39:48;;;;;;;21.42;8.95;;;11.30;99.90;;;;;;4979268;28;20045;-75